Time;durP1;ratioP1;P1;durP2;ratioP2;P2;SDS_P1;SDS_P2;PMS_P1;PMS_P2;Temp;Humidity;BMP_temperature;BMP_pressure;BME280_temperature;BME280_humidity;BME280_pressure;Samples;Min_cycle;Max_cycle;Signal;HPM_P1;HPM_P2
2023/04/04 00:00:59;;;;;;;;;6.00;5.00;;;;;7.98;46.92;102058.59;5067575;28;46980;-74
2023/04/04 00:03:24;;;;;;;;;7.00;7.00;;;;;7.97;46.85;102064.81;5073175;28;45260;-74
2023/04/04 00:05:50;;;;;;;;;7.00;7.00;;;;;8.07;46.94;102089.81;5061991;28;45334;-73
2023/04/04 00:08:16;;;;;;;;;5.00;5.00;;;;;5.71;46.49;101680.19;5059198;28;45630;-74
2023/04/04 00:10:41;;;;;;;;;5.67;5.67;;;;;8.06;46.67;102072.22;5044066;28;46507;-73
2023/04/04 00:13:07;;;;;;;;;9.00;7.33;;;;;7.79;46.22;102043.81;5060880;28;45452;-72
2023/04/04 00:15:34;;;;;;;;;6.33;6.00;;;;;7.68;46.38;102017.19;5059083;28;45352;-72
2023/04/04 00:18:01;;;;;;;;;5.67;5.67;;;;;7.16;46.51;101927.75;5066149;28;45454;-73
2023/04/04 00:20:26;;;;;;;;;5.00;5.00;;;;;7.35;46.47;101948.63;5058833;28;45780;-72
2023/04/04 00:22:52;;;;;;;;;5.00;5.00;;;;;8.14;46.42;102088.47;5059073;28;45274;-72
2023/04/04 00:25:17;;;;;;;;;9.00;6.67;;;;;7.85;45.99;102042.63;5041064;28;45302;-73
2023/04/04 00:27:42;;;;;;;;;7.00;5.33;;;;;7.80;45.93;102040.22;5041305;28;45298;-73
2023/04/04 00:30:08;;;;;;;;;6.00;5.00;;;;;8.01;46.00;102074.28;5059087;28;46386;-73
2023/04/04 00:32:34;;;;;;;;;1.33;1.33;;;;;6.08;45.84;101763.34;5058980;28;45494;-74
2023/04/04 00:34:59;;;;;;;;;6.33;4.67;;;;;7.71;45.98;102040.81;5041652;28;45493;-73
2023/04/04 00:37:26;;;;;;;;;11.33;8.00;;;;;7.58;45.91;102035.41;5021554;28;45465;-74
2023/04/04 00:39:52;;;;;;;;;6.67;5.00;;;;;7.80;46.18;102071.16;5044826;28;47100;-73
2023/04/04 00:42:17;;;;;;;;;6.00;6.00;;;;;7.86;46.01;102081.38;5056823;28;45412;-73
2023/04/04 00:44:43;;;;;;;;;6.33;6.00;;;;;7.87;45.65;102083.09;5058862;28;45503;-74
2023/04/04 00:47:08;;;;;;;;;5.00;5.00;;;;;7.68;45.83;102051.59;5058735;28;45381;-73
2023/04/04 00:49:33;;;;;;;;;7.00;6.00;;;;;7.42;45.97;102013.47;5058235;28;45399;-74
2023/04/04 00:51:59;;;;;;;;;6.00;6.00;;;;;7.63;45.99;102059.81;5057684;28;62699;-73
2023/04/04 00:54:24;;;;;;;;;5.33;5.33;;;;;7.73;45.90;102069.84;5056988;28;45439;-73
2023/04/04 00:56:54;;;;;;;;;4.00;4.00;;;;;7.65;45.70;102061.53;5058489;28;45606;-73
2023/04/04 00:59:21;;;;;;;;;5.00;5.00;;;;;7.64;45.97;102039.50;5068784;28;45560;-73
2023/04/04 01:01:47;;;;;;;;;7.33;6.00;;;;;7.82;45.72;102085.19;5061159;28;45281;-72
2023/04/04 01:04:12;;;;;;;;;5.33;5.33;;;;;7.85;46.24;102079.69;5062551;28;45442;-74
2023/04/04 01:06:38;;;;;;;;;7.67;4.67;;;;;7.84;46.08;102078.84;5058973;28;45471;-72
2023/04/04 01:09:03;;;;;;;;;8.33;6.33;;;;;7.87;45.69;102068.06;5057526;28;46539;-74
2023/04/04 01:11:29;;;;;;;;;4.00;4.00;;;;;7.89;45.78;102073.25;5060029;28;45393;-72
2023/04/04 01:13:54;;;;;;;;;5.00;5.00;;;;;7.62;45.77;102026.34;5062406;28;45676;-73
2023/04/04 01:16:20;;;;;;;;;6.00;5.33;;;;;7.89;46.10;102052.06;5061220;28;45400;-72
2023/04/04 01:18:47;;;;;;;;;8.00;6.00;;;;;7.94;45.81;102058.78;5058020;28;46317;-73
2023/04/04 01:21:16;;;;;;;;;4.00;4.00;;;;;7.54;45.78;101977.47;5058240;28;45179;-73
2023/04/04 01:23:50;;;;;;;;;6.67;5.67;;;;;7.93;45.50;102058.88;5040447;28;45281;-74
2023/04/04 01:26:15;;;;;;;;;5.00;5.00;;;;;7.88;45.95;102060.97;5020678;28;45314;-73
2023/04/04 01:28:41;;;;;;;;;6.67;6.00;;;;;7.57;45.49;102007.25;5056689;28;45465;-72
2023/04/04 01:31:11;;;;;;;;;4.67;4.67;;;;;7.87;46.28;102067.22;5059030;28;45247;-73
2023/04/04 01:33:42;;;;;;;;;6.33;6.00;;;;;7.59;46.03;102026.53;5059267;28;45257;-73
2023/04/04 01:36:56;;;;;;;;;5.00;5.00;;;;;7.74;45.97;102071.53;5058100;28;45428;-73
2023/04/04 01:39:30;;;;;;;;;5.33;4.67;;;;;7.62;46.51;102059.91;5039747;28;47608;-73
2023/04/04 01:41:58;;;;;;;;;3.67;3.67;;;;;7.43;46.41;102035.50;5050034;28;45377;-73
2023/04/04 01:44:25;;;;;;;;;5.67;5.00;;;;;7.63;47.15;102064.25;5031737;28;45889;-72
2023/04/04 01:46:54;;;;;;;;;7.00;5.00;;;;;7.09;46.91;101989.03;5020138;28;45540;-73
2023/04/04 01:49:21;;;;;;;;;6.00;6.00;;;;;6.89;46.90;101991.06;5037671;28;46655;-73
2023/04/04 01:51:48;;;;;;;;;10.33;9.33;;;;;7.30;47.79;102057.38;5044371;28;45544;-74
2023/04/04 01:54:14;;;;;;;;;7.00;7.00;;;;;7.38;47.21;102075.44;5058011;28;45345;-73
2023/04/04 01:56:39;;;;;;;;;6.00;6.00;;;;;7.33;46.93;102066.94;5057817;28;45467;-73
2023/04/04 01:59:04;;;;;;;;;10.00;8.00;;;;;7.38;46.92;102075.44;5057556;28;45736;-73
2023/04/04 02:01:32;;;;;;;;;5.00;5.00;;;;;7.33;47.31;102069.56;5057742;28;45443;-74
2023/04/04 02:03:57;;;;;;;;;6.33;6.00;;;;;7.28;46.70;102080.44;5056498;28;45347;-74
2023/04/04 02:06:23;;;;;;;;;6.00;5.00;;;;;6.92;46.75;102025.25;5026831;28;45530;-74
2023/04/04 02:08:48;;;;;;;;;7.00;6.00;;;;;6.35;46.47;101929.91;5039194;28;47976;-72
2023/04/04 02:11:13;;;;;;;;;7.00;7.00;;;;;7.18;46.97;102071.31;5056551;28;45242;-74
2023/04/04 02:13:43;;;;;;;;;7.33;6.67;;;;;7.25;46.64;102069.19;5066484;28;45261;-73
2023/04/04 02:16:08;;;;;;;;;7.33;7.33;;;;;7.16;46.31;102065.28;5047467;28;45415;-72
2023/04/04 02:18:35;;;;;;;;;5.33;5.33;;;;;7.13;46.49;102070.75;5077423;28;45529;-74
2023/04/04 02:21:00;;;;;;;;;10.33;6.00;;;;;7.13;46.30;102062.81;5077429;28;45474;-72
2023/04/04 02:23:25;;;;;;;;;6.00;5.00;;;;;6.82;45.96;101997.66;5077599;28;45456;-73
2023/04/04 02:25:50;;;;;;;;;7.33;6.67;;;;;7.07;45.96;102049.97;5059552;28;45489;-72
2023/04/04 02:28:16;;;;;;;;;16.67;10.00;;;;;6.48;46.39;101955.63;5065926;28;45932;-73
2023/04/04 02:30:41;;;;;;;;;8.33;5.67;;;;;6.77;45.67;102001.50;5057195;28;45555;-73
2023/04/04 02:33:07;;;;;;;;;7.00;6.00;;;;;6.95;46.18;102034.78;5056131;28;45579;-74
2023/04/04 02:35:32;;;;;;;;;6.33;5.33;;;;;6.97;46.36;102044.34;5039380;28;45998;-73
2023/04/04 02:37:58;;;;;;;;;6.33;6.33;;;;;6.51;46.27;101969.50;5039405;28;47625;-72
2023/04/04 02:40:23;;;;;;;;;7.00;6.00;;;;;6.97;46.91;102046.97;5039229;28;45322;-74
2023/04/04 02:42:49;;;;;;;;;1.67;1.00;;;;;6.80;46.52;102010.09;5057433;28;45247;-73
2023/04/04 02:45:14;;;;;;;;;8.33;6.33;;;;;6.84;46.33;102027.50;5057460;28;45256;-73
2023/04/04 02:47:41;;;;;;;;;9.00;9.00;;;;;6.60;47.29;101999.81;5038935;28;46978;-73
2023/04/04 02:50:07;;;;;;;;;9.00;7.00;;;;;6.78;46.78;102051.63;5047786;28;45492;-72
2023/04/04 02:52:33;;;;;;;;;8.33;6.67;;;;;6.90;46.96;102043.00;5034949;28;45401;-74
2023/04/04 02:54:58;;;;;;;;;9.33;6.33;;;;;6.79;46.91;102021.59;5037246;28;45391;-73
2023/04/04 02:57:23;;;;;;;;;10.00;9.00;;;;;5.30;46.53;101769.56;5021673;28;46816;-74
2023/04/04 02:59:49;;;;;;;;;10.33;6.67;;;;;6.85;46.88;102023.91;5038660;28;45361;-72
2023/04/04 03:02:14;;;;;;;;;9.00;9.00;;;;;6.86;46.87;102030.91;5057117;28;45534;-73
2023/04/04 03:04:39;;;;;;;;;7.33;6.67;;;;;6.97;46.71;102032.91;5057144;28;45230;-73
2023/04/04 03:07:05;;;;;;;;;6.33;6.33;;;;;6.95;47.21;102026.88;5038443;28;47708;-72
2023/04/04 03:09:30;;;;;;;;;5.67;5.67;;;;;6.99;46.97;102041.59;5057068;28;45440;-72
2023/04/04 03:11:56;;;;;;;;;8.67;8.33;;;;;6.74;46.35;101991.94;5056873;28;45454;-72
2023/04/04 03:14:21;;;;;;;;;8.33;7.00;;;;;6.83;46.65;102014.38;5057213;28;45287;-73
2023/04/04 03:16:48;;;;;;;;;7.00;7.00;;;;;7.12;46.90;102032.03;5057764;28;46185;-73
2023/04/04 03:19:14;;;;;;;;;7.67;7.67;;;;;6.92;46.48;102029.69;5060184;28;45249;-73
2023/04/04 03:21:39;;;;;;;;;5.00;5.00;;;;;7.00;46.89;102038.88;5059700;28;45447;-73
2023/04/04 03:24:05;;;;;;;;;9.67;6.67;;;;;6.76;46.75;101986.56;5059987;28;45338;-73
2023/04/04 03:26:30;;;;;;;;;8.67;6.33;;;;;6.95;46.86;102050.66;5041800;28;47894;-73
2023/04/04 03:28:55;;;;;;;;;5.67;5.67;;;;;6.45;46.81;101959.28;5039297;28;45298;-74
2023/04/04 03:31:21;;;;;;;;;6.00;6.00;;;;;6.91;46.07;102044.69;5060155;28;45487;-74
2023/04/04 03:33:46;;;;;;;;;6.00;6.00;;;;;6.80;46.88;102044.44;5060634;28;45493;-72
2023/04/04 03:36:12;;;;;;;;;9.00;7.00;;;;;6.69;46.51;102029.22;5046665;28;45863;-74
2023/04/04 03:38:37;;;;;;;;;9.00;7.33;;;;;6.65;47.16;102050.63;5022785;28;45444;-73
2023/04/04 03:41:04;;;;;;;;;11.00;10.00;;;;;6.60;47.17;102040.31;5049779;28;45459;-73
2023/04/04 03:43:31;;;;;;;;;5.67;5.67;;;;;6.58;47.09;102047.47;5060267;28;45522;-73
2023/04/04 03:46:04;;;;;;;;;9.00;7.33;;;;;6.55;46.95;102037.06;5059480;28;46290;-73
2023/04/04 03:48:29;;;;;;;;;6.00;6.00;;;;;5.88;47.22;101919.34;5040392;28;46077;-73
2023/04/04 03:50:56;;;;;;;;;3.00;3.00;;;;;6.59;46.99;102045.66;5058308;28;45512;-72
2023/04/04 03:53:25;;;;;;;;;4.33;4.00;;;;;6.55;46.52;102050.28;5039175;28;45535;-72
2023/04/04 03:55:51;;;;;;;;;9.33;5.33;;;;;6.56;46.76;102049.34;5074913;28;46722;-73
2023/04/04 03:58:17;;;;;;;;;6.67;6.67;;;;;6.47;47.35;102049.03;5057830;28;45234;-73
2023/04/04 04:00:42;;;;;;;;;5.00;5.00;;;;;5.98;47.23;101969.88;5059465;28;45484;-73
2023/04/04 04:03:07;;;;;;;;;5.00;5.00;;;;;6.55;47.06;102052.06;5056019;28;45538;-75
2023/04/04 04:05:32;;;;;;;;;7.33;5.00;;;;;6.61;46.85;102054.41;5042299;28;59832;-74
2023/04/04 04:07:58;;;;;;;;;5.00;3.00;;;;;6.35;47.12;102046.13;5059793;28;45436;-73
2023/04/04 04:10:23;;;;;;;;;7.00;7.00;;;;;6.19;46.73;102018.84;5058600;28;45307;-73
2023/04/04 04:12:48;;;;;;;;;6.00;6.00;;;;;6.29;47.02;102032.41;5059470;28;45279;-72
2023/04/04 04:15:14;;;;;;;;;6.00;5.00;;;;;6.25;47.05;102022.94;5033012;28;47539;-73
2023/04/04 04:17:40;;;;;;;;;10.00;9.00;;;;;6.29;48.16;102053.53;5049740;28;45349;-72
2023/04/04 04:20:07;;;;;;;;;7.33;5.33;;;;;6.29;48.29;102066.75;5068707;28;45388;-72
2023/04/04 04:22:33;;;;;;;;;9.00;7.33;;;;;6.18;47.84;102066.47;5058560;28;45285;-73
2023/04/04 04:24:58;;;;;;;;;9.67;9.67;;;;;6.22;48.72;102075.94;5058416;28;46424;-73
2023/04/04 04:27:24;;;;;;;;;9.00;8.00;;;;;5.75;48.45;102002.75;5047026;28;45578;-73
2023/04/04 04:29:49;;;;;;;;;9.00;9.00;;;;;6.17;48.35;102093.78;5058011;28;45571;-71
2023/04/04 04:32:16;;;;;;;;;6.33;4.67;;;;;5.86;48.50;102047.06;5040925;28;45607;-72
2023/04/04 04:34:42;;;;;;;;;9.33;8.00;;;;;6.05;49.34;102090.03;5058610;28;46777;-72
2023/04/04 04:37:07;;;;;;;;;9.00;6.67;;;;;6.01;49.84;102104.34;5058006;28;46496;-72
2023/04/04 04:39:33;;;;;;;;;8.33;7.67;;;;;5.50;50.08;102011.13;5040590;28;45460;-73
2023/04/04 04:41:58;;;;;;;;;6.00;5.00;;;;;5.05;49.75;101936.13;5042202;28;45535;-73
2023/04/04 04:44:23;;;;;;;;;8.00;5.67;;;;;6.07;49.91;102104.00;5057768;28;46866;-72
2023/04/04 04:46:49;;;;;;;;;9.67;9.67;;;;;5.96;49.92;102109.84;5038821;28;45343;-71
2023/04/04 04:49:14;;;;;;;;;10.00;10.00;;;;;5.42;49.87;102039.69;5038724;28;45317;-74
2023/04/04 04:51:41;;;;;;;;;9.67;8.00;;;;;5.60;50.14;102088.84;5057900;28;45335;-72
2023/04/04 04:54:06;;;;;;;;;8.67;7.33;;;;;5.35;50.18;102041.78;5051447;28;46670;-72
2023/04/04 04:56:32;;;;;;;;;8.00;6.67;;;;;5.16;50.38;102004.94;5037794;28;54082;-73
2023/04/04 04:58:57;;;;;;;;;7.67;7.33;;;;;4.96;50.89;101977.91;5052588;28;45564;-73
2023/04/04 05:01:22;;;;;;;;;8.33;5.00;;;;;5.60;50.15;102120.50;5058196;28;45254;-72
2023/04/04 05:03:48;;;;;;;;;8.67;5.00;;;;;5.01;50.22;102003.09;5039995;28;45718;-73
2023/04/04 05:06:13;;;;;;;;;10.33;8.00;;;;;5.69;50.08;102093.66;5029558;28;45428;-74
2023/04/04 05:08:38;;;;;;;;;9.67;8.00;;;;;5.30;49.91;102021.84;5038701;28;45331;-74
2023/04/04 05:11:04;;;;;;;;;9.00;6.67;;;;;5.67;50.28;102103.44;5039191;28;49177;-73
2023/04/04 05:13:29;;;;;;;;;9.00;8.67;;;;;5.63;49.85;102098.41;5057603;28;46013;-73
2023/04/04 05:15:54;;;;;;;;;4.33;4.33;;;;;5.58;50.33;102095.13;5056347;28;45298;-74
2023/04/04 05:18:20;;;;;;;;;6.67;6.67;;;;;5.56;50.36;102097.84;5048228;28;45159;-73
2023/04/04 05:20:53;;;;;;;;;9.00;9.00;;;;;5.38;50.85;102085.59;5056707;28;45257;-73
2023/04/04 05:23:18;;;;;;;;;8.33;8.33;;;;;5.38;50.70;102088.22;5037686;28;48438;-72
2023/04/04 05:25:44;;;;;;;;;10.00;6.67;;;;;4.41;50.57;101914.81;5057729;28;45226;-73
2023/04/04 05:28:09;;;;;;;;;8.67;8.00;;;;;5.45;50.39;102069.41;5056912;28;45939;-72
2023/04/04 05:30:34;;;;;;;;;10.00;7.00;;;;;5.33;50.19;102033.09;5054402;28;45155;-74
2023/04/04 05:33:00;;;;;;;;;10.00;8.33;;;;;5.69;50.29;102080.47;5067476;28;45384;-74
2023/04/04 05:35:25;;;;;;;;;8.67;6.33;;;;;4.93;49.53;101926.19;5058974;28;45426;-74
2023/04/04 05:37:51;;;;;;;;;7.33;6.67;;;;;5.40;49.85;102013.38;5063555;28;45760;-75
2023/04/04 05:40:16;;;;;;;;;11.00;9.00;;;;;5.52;49.60;102040.91;5057798;28;45519;-73
2023/04/04 05:42:41;;;;;;;;;6.67;6.67;;;;;5.08;49.93;101972.88;5057804;28;45486;-74
2023/04/04 05:45:07;;;;;;;;;9.00;9.00;;;;;5.32;49.67;102009.44;5056072;28;45514;-74
2023/04/04 05:47:33;;;;;;;;;8.33;7.33;;;;;3.32;49.77;101691.28;5058475;28;45565;-73
2023/04/04 05:49:58;;;;;;;;;8.00;8.00;;;;;4.73;50.64;101939.53;5058636;28;45550;-73
2023/04/04 05:52:24;;;;;;;;;4.33;4.33;;;;;5.55;49.22;102096.13;5052318;28;47628;-73
2023/04/04 05:54:50;;;;;;;;;10.67;7.33;;;;;5.48;49.48;102092.97;5035486;28;45326;-74
2023/04/04 05:57:16;;;;;;;;;9.00;5.00;;;;;5.62;49.72;102104.59;5030203;28;45421;-73
2023/04/04 05:59:41;;;;;;;;;8.67;8.67;;;;;5.58;49.83;102101.25;5029223;28;45587;-74
2023/04/04 06:02:07;;;;;;;;;9.67;8.67;;;;;5.47;49.49;102082.50;5016896;28;45705;-74
2023/04/04 06:04:32;;;;;;;;;8.33;8.00;;;;;5.54;49.66;102094.44;5017614;28;45556;-74
2023/04/04 06:06:58;;;;;;;;;9.00;7.33;;;;;5.26;49.66;102044.03;5015884;28;45282;-74
2023/04/04 06:09:23;;;;;;;;;9.67;9.67;;;;;5.76;49.02;102105.59;5017665;28;45322;-75
2023/04/04 06:11:49;;;;;;;;;8.67;8.00;;;;;5.66;49.67;102082.41;5030329;28;46383;-74
2023/04/04 06:14:15;;;;;;;;;5.67;5.00;;;;;5.67;48.23;102090.25;5035982;28;45344;-75
2023/04/04 06:16:40;;;;;;;;;9.67;8.00;;;;;5.18;49.90;102032.06;5037201;28;45234;-74
2023/04/04 06:19:05;;;;;;;;;2.00;2.00;;;;;5.02;49.77;102033.81;5037219;28;45426;-73
2023/04/04 06:21:31;;;;;;;;;7.33;7.33;;;;;5.38;49.44;102099.63;5028033;28;45564;-77
2023/04/04 06:23:56;;;;;;;;;6.00;6.00;;;;;5.54;48.63;102125.22;5016151;28;45244;-80
2023/04/04 06:26:21;;;;;;;;;7.67;7.67;;;;;5.63;49.73;102135.34;5033302;28;46032;-76
2023/04/04 06:28:48;;;;;;;;;7.00;7.00;;;;;5.59;48.50;102120.56;5032464;28;45340;-74
2023/04/04 06:31:14;;;;;;;;;7.33;5.33;;;;;5.76;48.17;102142.53;5033641;28;45937;-74
2023/04/04 06:33:39;;;;;;;;;6.33;6.33;;;;;6.26;48.42;102139.06;5047583;28;45404;-74
2023/04/04 06:36:05;;;;;;;;;6.67;6.00;;;;;6.70;46.37;102138.44;5057576;28;45513;-73
2023/04/04 06:38:31;;;;;;;;;9.67;7.67;;;;;6.56;44.86;102032.63;5037926;28;46220;-72
2023/04/04 06:40:56;;;;;;;;;7.33;7.33;;;;;7.88;43.71;102148.34;5035555;28;46145;-74
2023/04/04 06:43:22;;;;;;;;;9.00;7.67;;;;;8.59;42.11;102139.56;5028265;28;45955;-75
2023/04/04 06:45:48;;;;;;;;;10.00;8.33;;;;;8.30;40.98;102009.75;5030621;28;45362;-75
2023/04/04 06:48:14;;;;;;;;;7.00;7.00;;;;;9.27;39.57;102111.22;5035489;28;45556;-72
2023/04/04 06:50:40;;;;;;;;;7.00;7.00;;;;;9.84;38.49;102123.31;5039583;28;48049;-76
2023/04/04 06:53:06;;;;;;;;;7.33;6.67;;;;;10.50;37.63;102148.81;5065866;28;45501;-75
2023/04/04 06:55:32;;;;;;;;;6.67;6.33;;;;;11.23;36.69;102144.34;5042525;28;45262;-75
2023/04/04 06:57:58;;;;;;;;;6.00;5.00;;;;;11.64;35.46;102145.69;5060504;28;45514;-74
2023/04/04 07:00:23;;;;;;;;;9.00;9.00;;;;;11.46;34.53;102024.59;5052345;28;45836;-74
2023/04/04 07:02:49;;;;;;;;;12.33;10.00;;;;;12.50;33.61;102158.56;5058590;28;45514;-73
2023/04/04 07:05:16;;;;;;;;;8.00;8.00;;;;;12.39;33.59;102159.38;5045459;28;45591;-73
2023/04/04 07:07:43;;;;;;;;;7.00;7.00;;;;;12.53;33.12;102154.78;5047892;28;45476;-72
2023/04/04 07:10:08;;;;;;;;;11.00;9.00;;;;;12.65;33.22;102132.47;5059447;28;45739;-74
2023/04/04 07:12:33;;;;;;;;;11.00;8.00;;;;;13.22;31.96;102161.63;5059887;28;45508;-72
2023/04/04 07:14:59;;;;;;;;;12.00;9.00;;;;;13.22;31.86;102129.56;5040189;28;45451;-75
2023/04/04 07:17:24;;;;;;;;;8.00;7.00;;;;;13.56;31.06;102156.13;5039657;28;53623;-73
2023/04/04 07:19:50;;;;;;;;;10.00;8.67;;;;;13.38;31.19;102131.78;5053102;28;46240;-78
2023/04/04 07:22:15;;;;;;;;;10.33;10.00;;;;;13.46;30.55;102099.94;5035580;28;45478;-78
2023/04/04 07:24:41;;;;;;;;;11.33;10.00;;;;;13.79;30.08;102106.06;5036467;28;45468;-74
2023/04/04 07:27:07;;;;;;;;;10.33;10.33;;;;;14.53;29.82;102157.56;5060868;28;45577;-73
2023/04/04 07:29:32;;;;;;;;;13.00;9.00;;;;;14.82;29.77;102142.44;5058397;28;46698;-73
2023/04/04 07:31:57;;;;;;;;;9.67;8.00;;;;;14.95;28.62;102127.94;5059753;28;45603;-73
2023/04/04 07:34:24;;;;;;;;;8.33;6.00;;;;;15.13;27.95;102111.03;5078410;28;45384;-74
2023/04/04 07:36:50;;;;;;;;;8.67;6.67;;;;;15.21;27.09;102142.47;5052868;28;45700;-73
2023/04/04 07:39:15;;;;;;;;;8.33;8.33;;;;;15.53;27.92;102145.72;5059130;28;45594;-73
2023/04/04 07:41:41;;;;;;;;;8.33;7.33;;;;;15.31;27.09;102111.19;5041941;28;45733;-72
2023/04/04 07:44:06;;;;;;;;;6.67;6.67;;;;;14.83;27.59;102089.75;5041590;28;45324;-72
2023/04/04 07:46:32;;;;;;;;;8.67;8.67;;;;;15.04;27.89;102119.91;5059670;28;45334;-72
2023/04/04 07:48:58;;;;;;;;;8.33;8.33;;;;;15.28;27.64;102157.00;5040972;28;46830;-75
2023/04/04 07:51:28;;;;;;;;;7.00;6.00;;;;;15.18;27.12;102068.59;5053089;28;45844;-73
2023/04/04 07:53:54;;;;;;;;;10.00;8.33;;;;;16.18;26.91;102142.38;5081253;28;45413;-73
2023/04/04 07:56:20;;;;;;;;;9.67;7.33;;;;;16.59;25.88;102141.91;5062357;28;45652;-73
2023/04/04 07:58:46;;;;;;;;;6.00;6.00;;;;;17.30;25.53;102157.34;5079770;28;46465;-74
2023/04/04 08:01:12;;;;;;;;;9.00;8.33;;;;;17.84;24.56;102118.66;5077986;28;45474;-74
2023/04/04 08:03:37;;;;;;;;;8.33;7.00;;;;;17.67;23.98;102062.19;5079176;28;45197;-74
2023/04/04 08:06:03;;;;;;;;;6.33;6.33;;;;;18.68;24.11;102139.47;5061476;28;45501;-72
2023/04/04 08:08:28;;;;;;;;;7.00;7.00;;;;;18.87;22.91;102073.66;5059049;28;45916;-73
2023/04/04 08:10:54;;;;;;;;;7.33;7.33;;;;;19.24;22.21;102143.31;5058490;28;45516;-74
2023/04/04 08:13:19;;;;;;;;;9.00;7.67;;;;;18.41;23.33;102143.19;5059249;28;45386;-74
2023/04/04 08:15:45;;;;;;;;;7.33;7.33;;;;;18.85;23.09;102113.41;5057913;28;45542;-73
2023/04/04 08:18:10;;;;;;;;;8.33;7.00;;;;;18.73;22.70;102098.56;5059738;28;46318;-74
2023/04/04 08:20:35;;;;;;;;;6.67;6.67;;;;;19.18;22.11;102095.41;5063916;28;45594;-75
2023/04/04 08:23:01;;;;;;;;;5.33;5.33;;;;;18.41;22.05;101975.38;5061680;28;45359;-71
2023/04/04 08:25:26;;;;;;;;;5.67;5.67;;;;;18.93;22.09;102124.19;5079950;28;45186;-72
2023/04/04 08:27:52;;;;;;;;;6.00;6.00;;;;;18.60;22.92;102133.16;5080160;28;45538;-72
2023/04/04 08:30:17;;;;;;;;;6.33;6.33;;;;;18.37;22.19;102063.72;5060469;28;45407;-73
2023/04/04 08:32:44;;;;;;;;;11.33;9.33;;;;;18.45;21.73;102057.56;5059664;28;45217;-74
2023/04/04 08:35:10;;;;;;;;;8.33;8.33;;;;;18.73;22.80;102141.66;5058314;28;45478;-74
2023/04/04 08:37:36;;;;;;;;;7.00;7.00;;;;;19.01;22.62;102128.75;5041354;28;48754;-73
2023/04/04 08:40:03;;;;;;;;;7.67;6.00;;;;;18.74;22.61;102132.56;5081468;28;57278;-74
2023/04/04 08:42:32;;;;;;;;;7.00;7.00;;;;;17.98;22.68;102124.44;5077980;28;45582;-75
2023/04/04 08:45:00;;;;;;;;;8.33;6.00;;;;;17.45;23.26;102117.31;5079436;28;45558;-74
2023/04/04 08:47:29;;;;;;;;;8.00;6.00;;;;;17.54;23.95;102073.34;5060667;28;46002;-72
2023/04/04 08:49:55;;;;;;;;;7.00;6.00;;;;;18.60;22.86;102136.69;5040071;28;45385;-73
2023/04/04 08:52:24;;;;;;;;;7.00;7.00;;;;;17.85;22.53;102006.50;5058398;28;45407;-74
2023/04/04 08:54:51;;;;;;;;;5.00;5.00;;;;;18.40;22.34;102047.25;5040698;28;45501;-74
2023/04/04 08:57:16;;;;;;;;;7.00;7.00;;;;;18.30;22.19;102057.31;5058269;28;46122;-74
2023/04/04 08:59:42;;;;;;;;;6.67;6.00;;;;;18.62;21.87;102148.19;5058426;28;45385;-73
2023/04/04 09:02:07;;;;;;;;;9.00;7.67;;;;;18.67;22.30;102153.94;5058818;28;45318;-74
2023/04/04 09:04:33;;;;;;;;;9.67;9.67;;;;;17.69;22.20;101961.53;5056813;28;45590;-73
2023/04/04 09:07:01;;;;;;;;;9.00;6.00;;;;;18.12;22.08;102072.72;5070975;28;45516;-73
2023/04/04 09:09:27;;;;;;;;;7.00;6.00;;;;;17.73;22.97;102083.09;5078289;28;45456;-72
2023/04/04 09:11:53;;;;;;;;;11.33;10.33;;;;;18.40;22.75;102130.72;5079022;28;45376;-73
2023/04/04 09:14:20;;;;;;;;;7.33;7.33;;;;;18.53;21.87;102092.56;5077667;28;45389;-75
2023/04/04 09:16:45;;;;;;;;;8.33;8.33;;;;;17.87;21.92;102074.44;5079150;28;46454;-75
2023/04/04 09:19:11;;;;;;;;;6.33;6.33;;;;;17.71;22.66;102123.59;5050708;28;45610;-76
2023/04/04 09:21:37;;;;;;;;;5.33;5.00;;;;;17.84;22.97;102136.66;5035221;28;45429;-78
2023/04/04 09:24:03;;;;;;;;;6.33;6.33;;;;;18.49;22.46;102156.69;5053364;28;45751;-73
2023/04/04 09:26:46;;;;;;;;;5.67;5.33;;;;;19.79;21.98;102141.81;5054270;28;45602;-75
2023/04/04 09:29:12;;;;;;;;;4.67;4.00;;;;;19.89;19.88;102002.13;5063355;28;45582;-74
2023/04/04 09:31:38;;;;;;;;;8.67;7.33;;;;;21.02;19.46;102146.59;5057221;28;45698;-76
2023/04/04 09:34:04;;;;;;;;;12.33;9.67;;;;;21.60;18.97;102084.81;5040235;28;45699;-75
2023/04/04 09:36:30;;;;;;;;;5.67;5.67;;;;;22.71;18.29;102109.13;5057276;28;46269;-74
2023/04/04 09:38:56;;;;;;;;;5.67;5.67;;;;;23.32;16.97;102123.97;5063826;28;45349;-75
2023/04/04 09:41:21;;;;;;;;;5.00;5.00;;;;;21.45;18.37;101999.06;5061562;28;45282;-73
2023/04/04 09:43:47;;;;;;;;;8.00;7.00;;;;;22.04;18.19;102130.91;5038029;28;45418;-74
2023/04/04 09:46:14;;;;;;;;;6.33;6.33;;;;;22.63;18.18;102122.78;5046101;28;46035;-71
2023/04/04 09:48:47;;;;;;;;;4.33;3.67;;;;;22.84;17.19;102151.84;5027129;28;45576;-72
2023/04/04 09:51:13;;;;;;;;;6.67;6.00;;;;;22.83;17.35;102079.69;5056430;28;45321;-73
2023/04/04 09:53:41;;;;;;;;;6.33;6.33;;;;;22.49;17.12;102108.22;5056821;28;45484;-76
2023/04/04 09:56:08;;;;;;;;;7.67;5.67;;;;;22.70;17.96;102089.28;5057012;28;45797;-76
2023/04/04 09:58:36;;;;;;;;;5.67;5.67;;;;;22.15;17.29;101989.63;5045919;28;45424;-74
2023/04/04 10:01:07;;;;;;;;;4.67;4.67;;;;;22.77;16.99;102121.91;5065425;28;45390;-73
2023/04/04 10:03:33;;;;;;;;;4.00;4.00;;;;;21.65;17.26;102017.47;5040535;28;45343;-72
2023/04/04 10:06:01;;;;;;;;;7.00;6.00;;;;;21.55;17.70;101996.91;5038602;28;45443;-75
2023/04/04 10:08:27;;;;;;;;;9.33;6.33;;;;;20.90;18.54;102127.28;5030946;28;45515;-75
2023/04/04 10:11:04;;;;;;;;;8.67;7.33;;;;;19.85;19.32;102092.56;5038689;28;45380;-74
2023/04/04 10:13:31;;;;;;;;;4.00;4.00;;;;;17.91;21.07;102011.22;5055766;28;45245;-77
2023/04/04 10:15:58;;;;;;;;;6.00;6.00;;;;;16.98;22.62;102130.97;5062067;28;46250;-77
2023/04/04 10:18:26;;;;;;;;;7.00;7.00;;;;;16.48;23.37;102147.50;5057448;28;45530;-76
2023/04/04 10:20:53;;;;;;;;;5.67;5.67;;;;;15.39;23.90;102038.94;5059187;28;45337;-74
2023/04/04 10:23:20;;;;;;;;;5.00;5.00;;;;;14.78;25.21;102075.91;5046304;28;45580;-74
2023/04/04 10:25:46;;;;;;;;;8.00;5.67;;;;;14.49;26.08;102135.56;5032259;28;48417;-72
2023/04/04 10:28:12;;;;;;;;;7.67;6.33;;;;;13.94;26.95;102147.50;5019575;28;45496;-74
2023/04/04 10:30:46;;;;;;;;;7.33;7.33;;;;;13.27;27.69;102123.84;5072021;28;45345;-75
2023/04/04 10:33:21;;;;;;;;;6.00;5.00;;;;;13.18;27.68;102071.16;5069262;28;45563;-73
2023/04/04 10:35:52;;;;;;;;;8.67;8.67;;;;;12.11;28.65;101997.25;5059343;28;45725;-72
2023/04/04 10:38:22;;;;;;;;;5.00;5.00;;;;;12.27;28.66;102100.84;5048378;28;45514;-73
2023/04/04 10:40:50;;;;;;;;;6.67;6.00;;;;;12.04;30.00;102140.84;5039141;28;45568;-75
2023/04/04 10:43:23;;;;;;;;;7.67;7.67;;;;;12.00;29.29;102109.19;5039019;28;45660;-74
2023/04/04 10:45:50;;;;;;;;;9.00;7.67;;;;;11.95;29.60;102082.06;5061029;28;46849;-76
2023/04/04 10:48:17;;;;;;;;;7.00;6.00;;;;;12.17;29.30;102114.06;5038737;28;45472;-74
2023/04/04 10:50:42;;;;;;;;;8.67;8.67;;;;;12.33;29.72;102149.22;5066004;28;45381;-75
2023/04/04 10:53:09;;;;;;;;;10.00;8.67;;;;;11.91;29.59;102085.94;5046654;28;45449;-73
2023/04/04 10:55:35;;;;;;;;;7.33;7.33;;;;;11.55;29.78;102071.78;5054418;28;46680;-74
2023/04/04 10:58:01;;;;;;;;;7.00;7.00;;;;;11.45;29.68;102071.66;5050786;28;46612;-76
2023/04/04 11:00:27;;;;;;;;;8.00;7.67;;;;;10.76;30.45;102000.63;5060139;28;45586;-75
2023/04/04 11:03:00;;;;;;;;;8.33;7.00;;;;;11.35;31.15;102104.44;5055353;28;45533;-74
2023/04/04 11:05:39;;;;;;;;;12.67;10.67;;;;;11.59;30.73;102123.84;5044469;28;45720;-77
2023/04/04 11:08:12;;;;;;;;;10.00;9.00;;;;;11.24;29.84;102058.19;5034545;28;45303;-74
2023/04/04 11:10:43;;;;;;;;;10.67;8.00;;;;;11.40;30.27;102078.28;5054007;28;46056;-73
2023/04/04 11:13:23;;;;;;;;;10.33;9.00;;;;;11.65;30.23;102122.56;5055131;28;45443;-75
2023/04/04 11:15:58;;;;;;;;;11.67;9.67;;;;;11.52;31.50;102115.50;5055326;28;46584;-74
2023/04/04 11:18:40;;;;;;;;;7.33;6.33;;;;;11.52;31.73;102101.34;5017531;28;45499;-74
2023/04/04 11:21:08;;;;;;;;;8.33;8.33;;;;;11.07;31.73;102018.69;5036464;28;45446;-77
2023/04/04 11:23:48;;;;;;;;;7.67;6.33;;;;;11.21;32.51;102095.69;5019225;28;46174;-75
2023/04/04 11:26:31;;;;;;;;;7.00;6.33;;;;;11.03;32.89;102097.06;5036461;28;45366;-75